Flight Track Log - Related Links

Times and Time Zones

All times are in EDT time to prevent confusion due to time zone crossing. See the N983CA flight status page for this flight to view local times or setup timezone preferences in your user account.

Time Position Orientation Groundspeed Altitude Reporting Facility
EDT Latitude Longitude Course Direction KTS MPH feet Rate Location/Type
Wed 12:01:00 AM 37.6620 -122.4740 122° Southeast  Level FlightAware Approximate
Wed 12:02:00 AM 37.6270 -122.3655 North  Level FlightAware Approximate
Wed 12:03:00 AM 37.7351 -122.3535 North  Level FlightAware Approximate
Wed 12:04:00 AM 37.8436 -122.3500 North  Level FlightAware Approximate
Wed 12:05:00 AM 37.9521 -122.3500 North  Level FlightAware Approximate
Wed 12:06:00 AM 38.0606 -122.3479 North  Level FlightAware Approximate
Wed 12:07:00 AM 38.1689 -122.3396 North  Level FlightAware Approximate
Wed 12:08:00 AM 38.2773 -122.3314 North  Level FlightAware Approximate
Wed 12:09:00 AM 38.3856 -122.3237 North  Level FlightAware Approximate
Wed 12:10:00 AM 38.4940 -122.3158 North  Level FlightAware Approximate
Wed 12:11:00 AM 38.6024 -122.3075 North  Level FlightAware Approximate
Wed 12:12:00 AM 38.7107 -122.3000 North  Level FlightAware Approximate
Wed 12:13:00 AM 38.8193 -122.2998 North  Level FlightAware Approximate
Wed 12:14:00 AM 38.9277 -122.2931 North  Level FlightAware Approximate
Wed 12:15:00 AM 39.0361 -122.2863 North  Level FlightAware Approximate
Wed 12:16:00 AM 39.1446 -122.2833 North  Level FlightAware Approximate
Wed 12:17:00 AM 39.2529 -122.2781 North  Level FlightAware Approximate
Wed 12:18:00 AM 39.3612 -122.2672 North  Level FlightAware Approximate
Wed 12:19:00 AM 39.4697 -122.2667 North  Level FlightAware Approximate
Wed 12:20:00 AM 39.5781 -122.2622 North  Level FlightAware Approximate
Wed 12:21:00 AM 39.6863 -122.2514 North  Level FlightAware Approximate
Wed 12:22:00 AM 39.7945 -122.2395 North  Level FlightAware Approximate
Wed 12:23:00 AM 39.9028 -122.2333 North  Level FlightAware Approximate
Wed 12:24:00 AM 40.0113 -122.2333 360° North  Level FlightAware Approximate
Wed 12:25:00 AM 40.1198 -122.2298 North  Level FlightAware Approximate
Wed 12:26:00 AM 40.2280 -122.2191 North  Level FlightAware Approximate
Wed 12:27:00 AM 40.3363 -122.2084 North  Level FlightAware Approximate
Wed 12:28:00 AM 40.4445 -122.1977 North  Level FlightAware Approximate
Wed 12:29:00 AM 40.5527 -122.1869 North  Level FlightAware Approximate
Wed 12:30:00 AM 40.6609 -122.1761 North  Level FlightAware Approximate
Wed 12:31:00 AM 40.7692 -122.1653 North  Level FlightAware Approximate
Wed 12:32:00 AM 40.8774 -122.1544 North  Level FlightAware Approximate
Wed 12:33:00 AM 40.9856 -122.1435 North  Level FlightAware Approximate
Wed 12:34:00 AM 41.0939 -122.1325 North  Level FlightAware Approximate
Wed 12:35:00 AM 41.2021 -122.1215 North  Level FlightAware Approximate
Wed 12:36:00 AM 41.3103 -122.1105 North  Level FlightAware Approximate
Wed 12:37:00 AM 41.4185 -122.0994 North  Level FlightAware Approximate
Wed 12:38:00 AM 41.5267 -122.0883 North  Level FlightAware Approximate
Wed 12:39:00 AM 41.6350 -122.0772 North  Level FlightAware Approximate
Wed 12:40:00 AM 41.7432 -122.0660 North  Level FlightAware Approximate
Wed 12:41:00 AM 41.8514 -122.0548 North  Level FlightAware Approximate
Wed 12:42:00 AM 41.9596 -122.0435 North  Level FlightAware Approximate
Wed 12:43:00 AM 42.0678 -122.0323 North  Level FlightAware Approximate
Wed 12:44:00 AM 42.1761 -122.0209 North  Level FlightAware Approximate
Wed 12:45:00 AM 42.2842 -122.0082 North  Level FlightAware Approximate
Wed 12:46:00 AM 42.3924 -122.0000 North  Level FlightAware Approximate
Wed 12:47:00 AM 42.5000 -121.9987 90° East  Level FlightAware Approximate
Wed 12:48:00 AM 42.5937 -121.9478 16° North  Level FlightAware Approximate
Wed 12:49:00 AM 42.6982 -121.9080 16° North  Level FlightAware Approximate
Wed 12:50:00 AM 42.8027 -121.8681 16° North  Level FlightAware Approximate
Wed 12:51:00 AM 42.9084 -121.8354 10° North  Level FlightAware Approximate
Wed 12:52:00 AM 43.0126 -121.7940 17° North  Level FlightAware Approximate
Wed 12:53:00 AM 43.1165 -121.7512 17° North  Level FlightAware Approximate
Wed 12:54:00 AM 43.2207 -121.7093 15° North  Level FlightAware Approximate
Wed 12:55:00 AM 43.3257 -121.6718 15° North  Level FlightAware Approximate
Wed 12:56:00 AM 43.4308 -121.6342 15° North  Level FlightAware Approximate
Wed 12:57:00 AM 43.5329 -121.5890 14° North  Level FlightAware Approximate
Wed 12:58:00 AM 43.6334 -121.5333 10° North  Level FlightAware Approximate
Wed 12:59:00 AM 43.7393 -121.5010 16° North  Level FlightAware Approximate
Wed 01:00:00 AM 43.8436 -121.4593 16° North  Level FlightAware Approximate
Wed 01:01:00 AM 43.9464 -121.4114 16° North  Level FlightAware Approximate
Wed 01:02:00 AM 44.0512 -121.3718 13° North  Level FlightAware Approximate
Wed 01:03:00 AM 44.1557 -121.3311 16° North  Level FlightAware Approximate
Wed 01:04:00 AM 44.2500 -121.2846 90° East  Level FlightAware Approximate
Wed 01:05:00 AM 44.2541 -121.1500 90° East  Level Estimated
Wed 01:06:00 AM 44.2541 -121.1500 90° East  Level Estimated

Login

Don't have an account? Register now (free) for customized features, flight alerts, and more!